createdAt,value
2022-09-22T00:01:19.571Z,101788.53
2022-09-22T00:03:49.429Z,101792.19
2022-09-22T00:06:18.017Z,101791.41
2022-09-22T00:08:49.592Z,101788.88
2022-09-22T00:11:20.226Z,101784.56
2022-09-22T00:13:53.124Z,101779.75
2022-09-22T00:16:23.182Z,101780.97
2022-09-22T00:18:50.433Z,101783.84
2022-09-22T00:21:19.925Z,101784.84
2022-09-22T00:23:47.666Z,101776.94
2022-09-22T00:26:17.145Z,101791.06
2022-09-22T00:28:45.765Z,101779.56
2022-09-22T00:31:16.934Z,101780.34
2022-09-22T00:33:46.224Z,101768.03
2022-09-22T00:36:14.611Z,101777.78
2022-09-22T00:38:42.052Z,101773.56
2022-09-22T00:41:15.756Z,101771.00
2022-09-22T00:43:44.068Z,101773.56
2022-09-22T00:46:26.135Z,101776.81
2022-09-22T00:48:57.170Z,101775.94
2022-09-22T00:51:25.768Z,101770.19
2022-09-22T00:53:53.419Z,101767.63
2022-09-22T00:56:23.710Z,101767.63
2022-09-22T00:58:54.087Z,101775.06
2022-09-22T01:01:21.412Z,101770.97
2022-09-22T01:03:50.018Z,101764.28
2022-09-22T01:06:20.589Z,101766.97
2022-09-22T01:08:47.672Z,101767.19
2022-09-22T01:11:15.641Z,101771.03
2022-09-22T01:14:04.282Z,101766.81
2022-09-22T01:16:42.866Z,101766.19
2022-09-22T01:19:47.527Z,101765.44
2022-09-22T01:22:49.755Z,101765.56
2022-09-22T01:25:33.532Z,101757.84
2022-09-22T01:28:05.396Z,101759.69
2022-09-22T01:30:50.353Z,101760.44
2022-09-22T01:33:33.038Z,101760.44
2022-09-22T01:36:02.730Z,101756.13
2022-09-22T01:38:32.619Z,101757.97
2022-09-22T01:41:02.560Z,101755.22
2022-09-22T01:43:35.088Z,101761.22
2022-09-22T01:46:06.766Z,101754.31
2022-09-22T01:48:35.275Z,101761.38
2022-09-22T01:51:13.346Z,101758.81
2022-09-22T01:53:47.813Z,101759.50
2022-09-22T01:56:16.116Z,101761.09
2022-09-22T01:58:47.781Z,101756.25
2022-09-22T02:01:20.508Z,101748.31
2022-09-22T02:03:51.915Z,101752.56
2022-09-22T02:06:26.994Z,101753.41
2022-09-22T02:08:56.862Z,101750.84
2022-09-22T02:11:24.177Z,101750.09
2022-09-22T02:13:51.784Z,101747.72
2022-09-22T02:16:20.628Z,101750.25
2022-09-22T02:19:12.604Z,101745.16
2022-09-22T02:21:42.060Z,101762.16
2022-09-22T02:24:26.297Z,101762.25
2022-09-22T02:26:53.662Z,101760.59
2022-09-22T02:29:22.639Z,101764.13
2022-09-22T02:31:50.864Z,101760.75
2022-09-22T02:34:18.783Z,101759.94
2022-09-22T02:36:54.484Z,101761.66
2022-09-22T02:39:29.507Z,101767.06
2022-09-22T02:41:59.385Z,101756.63
2022-09-22T02:44:35.465Z,101759.47
2022-09-22T02:47:25.110Z,101750.00
2022-09-22T02:49:52.894Z,101766.47
2022-09-22T02:52:23.060Z,101757.81
2022-09-22T02:54:52.318Z,101755.19
2022-09-22T02:57:20.329Z,101756.03
2022-09-22T02:59:47.483Z,101751.94
2022-09-22T03:02:14.586Z,101745.06
2022-09-22T03:04:41.715Z,101750.34
2022-09-22T03:07:08.968Z,101755.75
2022-09-22T03:09:36.173Z,101749.81
2022-09-22T03:12:03.492Z,101750.81
2022-09-22T03:14:30.620Z,101742.03
2022-09-22T03:16:57.756Z,101745.41
2022-09-22T03:19:24.947Z,101754.81
2022-09-22T03:21:52.152Z,101751.38
2022-09-22T03:24:19.308Z,101747.00
2022-09-22T03:26:46.449Z,101752.38
2022-09-22T03:29:13.527Z,101749.81
2022-09-22T03:31:40.604Z,101749.75
2022-09-22T03:34:07.693Z,101751.44
2022-09-22T03:36:35.188Z,101746.50
2022-09-22T03:39:02.289Z,101757.78
2022-09-22T03:41:29.371Z,101759.56
2022-09-22T03:43:56.539Z,101751.13
2022-09-22T03:46:23.661Z,101747.88
2022-09-22T03:48:52.203Z,101755.00
2022-09-22T03:51:19.506Z,101746.53
2022-09-22T03:53:46.605Z,101750.06
2022-09-22T03:56:15.274Z,101745.66
2022-09-22T03:58:43.305Z,101749.16
2022-09-22T04:01:11.302Z,101749.25
2022-09-22T04:03:39.200Z,101746.75
2022-09-22T04:06:06.747Z,101744.00
2022-09-22T04:08:33.869Z,101743.91
2022-09-22T04:11:01.750Z,101738.81
2022-09-22T04:13:29.083Z,101739.03
2022-09-22T04:15:56.253Z,101733.00
2022-09-22T04:18:23.450Z,101735.41
2022-09-22T04:20:51.326Z,101738.72
2022-09-22T04:23:18.815Z,101740.41
2022-09-22T04:25:45.966Z,101738.00
2022-09-22T04:28:13.090Z,101735.56
2022-09-22T04:30:40.256Z,101741.66
2022-09-22T04:33:07.464Z,101734.81
2022-09-22T04:35:34.558Z,101742.66
2022-09-22T04:38:01.737Z,101736.63
2022-09-22T04:40:30.065Z,101740.94
2022-09-22T04:42:57.874Z,101744.34
2022-09-22T04:45:24.970Z,101741.81
2022-09-22T04:47:52.881Z,101735.88
2022-09-22T04:50:22.226Z,101741.13
2022-09-22T04:52:51.741Z,101743.66
2022-09-22T04:55:19.625Z,101745.44
2022-09-22T04:57:51.634Z,101748.28
2022-09-22T05:00:19.749Z,101743.88
2022-09-22T05:02:46.954Z,101747.59
2022-09-22T05:05:14.621Z,101746.94
2022-09-22T05:07:54.526Z,101743.44
2022-09-22T05:10:25.100Z,101745.16
2022-09-22T05:12:55.902Z,101744.19
2022-09-22T05:15:23.031Z,101743.28
2022-09-22T05:17:52.269Z,101748.34
2022-09-22T05:20:20.596Z,101747.44
2022-09-22T05:22:48.233Z,101751.13
2022-09-22T05:25:18.152Z,101754.75
2022-09-22T05:27:50.558Z,101745.09
2022-09-22T05:30:18.859Z,101745.97
2022-09-22T05:32:47.099Z,101753.91
2022-09-22T05:35:19.260Z,101747.91
2022-09-22T05:37:47.793Z,101754.00
2022-09-22T05:40:15.413Z,101760.00
2022-09-22T05:42:47.156Z,101760.78
2022-09-22T05:45:15.107Z,101763.41
2022-09-22T05:47:42.665Z,101763.56
2022-09-22T05:50:11.389Z,101761.75
2022-09-22T05:52:38.451Z,101768.50
2022-09-22T05:55:06.681Z,101770.28
2022-09-22T05:57:34.173Z,101762.41
2022-09-22T06:00:01.662Z,101765.88
2022-09-22T06:02:28.798Z,101768.34
2022-09-22T06:04:55.946Z,101765.56
2022-09-22T06:07:26.531Z,101767.19
2022-09-22T06:09:53.574Z,101767.97
2022-09-22T06:12:20.814Z,101771.31
2022-09-22T06:14:47.894Z,101771.28
2022-09-22T06:17:14.968Z,101765.00
2022-09-22T06:19:43.126Z,101771.84
2022-09-22T06:22:11.635Z,101772.53
2022-09-22T06:24:38.815Z,101772.38
2022-09-22T06:27:05.913Z,101779.13
2022-09-22T06:29:32.994Z,101775.38
2022-09-22T06:32:00.202Z,101780.47
2022-09-22T06:34:27.621Z,101784.66
2022-09-22T06:37:00.095Z,101782.72
2022-09-22T06:39:27.210Z,101773.69
2022-09-22T06:41:55.536Z,101777.00
2022-09-22T06:44:22.684Z,101775.13
2022-09-22T06:46:49.775Z,101769.69
2022-09-22T06:49:16.845Z,101770.38
2022-09-22T06:51:43.932Z,101770.97
2022-09-22T06:54:11.071Z,101766.38
2022-09-22T06:56:42.524Z,101760.09
2022-09-22T06:59:14.149Z,101760.72
2022-09-22T07:01:42.540Z,101767.50
2022-09-22T07:04:11.126Z,101763.81
2022-09-22T07:06:39.595Z,101761.84
2022-09-22T07:09:07.845Z,101768.59
2022-09-22T07:11:39.509Z,101775.34
2022-09-22T07:14:08.683Z,101771.53
2022-09-22T07:16:36.492Z,101772.97
2022-09-22T07:19:04.744Z,101779.75
2022-09-22T07:21:36.388Z,101776.94
2022-09-22T07:24:04.919Z,101780.06
2022-09-22T07:26:34.318Z,101770.16
2022-09-22T07:29:08.408Z,101776.88
2022-09-22T07:31:36.606Z,101775.81
2022-09-22T07:34:04.074Z,101773.94
2022-09-22T07:36:32.840Z,101773.66
2022-09-22T07:39:17.801Z,101778.72
2022-09-22T07:41:44.890Z,101768.75
2022-09-22T07:44:32.322Z,101763.22
2022-09-22T07:47:00.445Z,101765.63
2022-09-22T07:49:27.592Z,101768.91
2022-09-22T07:51:55.268Z,101767.66
2022-09-22T07:54:26.222Z,101765.69
2022-09-22T07:56:58.603Z,101774.25
2022-09-22T07:59:27.447Z,101772.22
2022-09-22T08:01:55.590Z,101768.53
2022-09-22T08:04:23.883Z,101778.69
2022-09-22T08:06:55.239Z,101783.56
2022-09-22T08:09:22.903Z,101783.19
2022-09-22T08:11:50.085Z,101780.31
2022-09-22T08:14:17.496Z,101778.44
2022-09-22T08:16:45.945Z,101781.72
2022-09-22T08:19:13.583Z,101777.03
2022-09-22T08:21:49.691Z,101773.72
2022-09-22T08:24:23.350Z,101781.22
2022-09-22T08:26:52.279Z,101784.34
2022-09-22T08:29:19.671Z,101782.22
2022-09-22T08:31:47.403Z,101784.66
2022-09-22T08:34:16.816Z,101789.94
2022-09-22T08:36:47.071Z,101793.06
2022-09-22T08:39:15.121Z,101790.13
2022-09-22T08:41:46.849Z,101793.25
2022-09-22T08:44:16.655Z,101796.22
2022-09-22T08:46:45.149Z,101797.28
2022-09-22T08:49:33.181Z,101792.63
2022-09-22T08:52:06.946Z,101788.75
2022-09-22T08:54:35.216Z,101795.44
2022-09-22T08:57:26.975Z,101786.44
2022-09-22T09:00:10.605Z,101785.97
2022-09-22T09:02:54.805Z,101791.25
2022-09-22T09:06:04.014Z,101786.72
2022-09-22T09:09:05.286Z,101785.25
2022-09-22T09:12:06.774Z,101785.97
2022-09-22T09:14:55.857Z,101785.72
2022-09-22T09:17:29.591Z,101781.84
2022-09-22T09:19:59.813Z,101773.53
2022-09-22T09:22:36.055Z,101775.94
2022-09-22T09:25:24.708Z,101779.28
2022-09-22T09:27:57.175Z,101770.41
2022-09-22T09:30:24.354Z,101772.19
2022-09-22T09:33:01.357Z,101778.44
2022-09-22T09:35:47.825Z,101774.69
2022-09-22T09:38:17.228Z,101771.81
2022-09-22T09:40:54.306Z,101771.31
2022-09-22T09:43:24.907Z,101770.88
2022-09-22T09:46:18.139Z,101765.03
2022-09-22T09:49:00.147Z,101771.28
2022-09-22T09:51:28.104Z,101770.66
2022-09-22T09:53:55.580Z,101773.59
2022-09-22T09:56:25.640Z,101771.03
2022-09-22T09:59:15.008Z,101772.31
2022-09-22T10:01:43.395Z,101774.94
2022-09-22T10:04:29.161Z,101769.56
2022-09-22T10:07:10.405Z,101769.50
2022-09-22T10:09:37.591Z,101764.63
2022-09-22T10:12:05.185Z,101759.84
2022-09-22T10:14:34.455Z,101764.97
2022-09-22T10:17:03.821Z,101759.72
2022-09-22T10:19:32.063Z,101772.28
2022-09-22T10:22:20.752Z,101763.16
2022-09-22T10:24:59.308Z,101761.69
2022-09-22T10:27:27.880Z,101765.47
2022-09-22T10:30:27.407Z,101768.63
2022-09-22T10:33:05.003Z,101766.25
2022-09-22T10:35:34.550Z,101762.63
2022-09-22T10:38:09.884Z,101764.22
2022-09-22T10:40:39.278Z,101760.34
2022-09-22T10:43:15.598Z,101762.69
2022-09-22T10:45:50.826Z,101761.56
2022-09-22T10:48:29.014Z,101762.81
2022-09-22T10:51:14.514Z,101760.25
2022-09-22T10:54:05.740Z,101765.72
2022-09-22T10:56:39.805Z,101762.84
2022-09-22T10:59:25.526Z,101763.59
2022-09-22T11:02:44.850Z,101757.97
2022-09-22T11:05:43.793Z,101756.66
2022-09-22T11:08:39.620Z,101760.03
2022-09-22T11:11:46.095Z,101756.47
2022-09-22T11:14:43.480Z,101754.31
2022-09-22T11:17:25.151Z,101754.59
2022-09-22T11:20:10.722Z,101750.53
2022-09-22T11:22:51.232Z,101752.38
2022-09-22T11:25:22.391Z,101758.94
2022-09-22T11:28:20.619Z,101747.56
2022-09-22T11:30:51.220Z,101736.81
2022-09-22T11:33:33.481Z,101728.09
2022-09-22T11:36:06.166Z,101727.34
2022-09-22T11:38:51.317Z,101727.09
2022-09-22T11:41:42.347Z,101724.25
2022-09-22T11:44:28.582Z,101724.75
2022-09-22T11:47:08.942Z,101724.31
2022-09-22T11:49:55.945Z,101719.50
2022-09-22T11:52:43.079Z,101713.50
2022-09-22T11:55:31.064Z,101714.38
2022-09-22T11:58:00.948Z,101710.75
2022-09-22T12:00:35.102Z,101709.25
2022-09-22T12:03:09.385Z,101711.97
2022-09-22T12:05:58.795Z,101714.81
2022-09-22T12:08:29.395Z,101704.66
2022-09-22T12:10:56.459Z,101707.59
2022-09-22T12:13:28.152Z,101700.47
2022-09-22T12:16:41.470Z,101693.47
2022-09-22T12:19:33.156Z,101689.16
2022-09-22T12:22:15.039Z,101687.72
2022-09-22T12:24:46.018Z,101674.31
2022-09-22T12:27:22.335Z,101679.16
2022-09-22T12:30:01.613Z,101679.84
2022-09-22T12:32:43.779Z,101679.63
2022-09-22T12:35:19.344Z,101673.50
2022-09-22T12:37:46.480Z,101679.44
2022-09-22T12:40:35.424Z,101677.00
2022-09-22T12:43:02.780Z,101678.38
2022-09-22T12:45:35.235Z,101667.03
2022-09-22T12:48:10.584Z,101676.00
2022-09-22T12:50:42.523Z,101678.09
2022-09-22T12:53:29.965Z,101675.69
2022-09-22T12:55:57.871Z,101670.88
2022-09-22T12:58:30.869Z,101672.69
2022-09-22T13:01:27.760Z,101672.13
2022-09-22T13:04:05.831Z,101662.91
2022-09-22T13:06:32.789Z,101669.31
2022-09-22T13:09:00.957Z,101670.78
2022-09-22T13:12:05.930Z,101662.88
2022-09-22T13:14:59.110Z,101668.16
2022-09-22T13:17:47.816Z,101665.56
2022-09-22T13:20:24.082Z,101667.97
2022-09-22T13:22:52.082Z,101668.25
2022-09-22T13:25:27.710Z,101660.66
2022-09-22T13:28:08.212Z,101664.19
2022-09-22T13:30:36.688Z,101668.25
2022-09-22T13:33:03.894Z,101663.91
2022-09-22T13:35:36.364Z,101657.84
2022-09-22T13:38:03.769Z,101651.91
2022-09-22T13:40:34.674Z,101650.41
2022-09-22T13:43:06.552Z,101647.94
2022-09-22T13:45:34.038Z,101640.16
2022-09-22T13:48:10.196Z,101635.47
2022-09-22T13:51:13.161Z,101643.34
2022-09-22T13:53:43.191Z,101638.81
2022-09-22T13:56:19.300Z,101635.94
2022-09-22T13:58:50.143Z,101630.34
2022-09-22T14:01:20.743Z,101628.88
2022-09-22T14:03:48.782Z,101622.63
2022-09-22T14:06:21.952Z,101625.41
2022-09-22T14:08:50.456Z,101626.03
2022-09-22T14:11:19.948Z,101625.69
2022-09-22T14:13:52.955Z,101621.03
2022-09-22T14:16:21.549Z,101613.06
2022-09-22T14:18:52.082Z,101613.13
2022-09-22T14:21:19.303Z,101619.59
2022-09-22T14:23:49.178Z,101611.63
2022-09-22T14:26:23.389Z,101613.22
2022-09-22T14:28:51.463Z,101618.41
2022-09-22T14:31:22.590Z,101616.16
2022-09-22T14:33:49.827Z,101617.59
2022-09-22T14:36:19.755Z,101613.81
2022-09-22T14:39:02.247Z,101612.97
2022-09-22T14:41:36.789Z,101619.81
2022-09-22T14:44:26.733Z,101620.50
2022-09-22T14:46:56.549Z,101614.25
2022-09-22T14:49:40.854Z,101617.09
2022-09-22T14:52:27.960Z,101610.88
2022-09-22T14:54:56.544Z,101606.19
2022-09-22T14:57:25.246Z,101602.91
2022-09-22T15:00:26.564Z,101604.53
2022-09-22T15:02:55.573Z,101601.59
2022-09-22T15:05:30.147Z,101601.34
2022-09-22T15:07:58.212Z,101597.56
2022-09-22T15:10:30.148Z,101605.22
2022-09-22T15:13:29.704Z,101599.31
2022-09-22T15:15:57.854Z,101603.19
2022-09-22T15:18:29.837Z,101598.88
2022-09-22T15:21:11.047Z,101594.81
2022-09-22T15:23:44.834Z,101593.38
2022-09-22T15:26:25.119Z,101597.97
2022-09-22T15:28:57.725Z,101593.50
2022-09-22T15:31:28.373Z,101593.31
2022-09-22T15:33:56.992Z,101597.31
2022-09-22T15:36:25.611Z,101593.56
2022-09-22T15:39:01.077Z,101582.38
2022-09-22T15:41:28.276Z,101587.72
2022-09-22T15:43:55.608Z,101584.13
2022-09-22T15:46:28.429Z,101586.47
2022-09-22T15:49:00.589Z,101583.69
2022-09-22T15:51:28.081Z,101584.25
2022-09-22T15:53:55.188Z,101582.69
2022-09-22T15:56:23.344Z,101579.75
2022-09-22T15:58:53.818Z,101578.50
2022-09-22T16:01:20.949Z,101580.03
2022-09-22T16:03:48.135Z,101574.94
2022-09-22T16:06:16.895Z,101563.22
2022-09-22T16:08:46.556Z,101570.19
2022-09-22T16:11:15.966Z,101576.28
2022-09-22T16:13:43.140Z,101571.28
2022-09-22T16:16:10.915Z,101572.75
2022-09-22T16:18:42.038Z,101570.13
2022-09-22T16:21:26.235Z,101570.03
2022-09-22T16:23:54.745Z,101568.31
2022-09-22T16:26:22.539Z,101572.94
2022-09-22T16:28:50.138Z,101570.81
2022-09-22T16:31:19.085Z,101562.06
2022-09-22T16:33:51.399Z,101568.09
2022-09-22T16:36:18.470Z,101569.34
2022-09-22T16:38:45.595Z,101560.63
2022-09-22T16:41:24.524Z,101558.69
2022-09-22T16:43:52.496Z,101571.72
2022-09-22T16:46:35.028Z,101565.97
2022-09-22T16:49:07.994Z,101571.44
2022-09-22T16:51:36.976Z,101565.47
2022-09-22T16:54:07.417Z,101569.75
2022-09-22T16:56:37.760Z,101569.41
2022-09-22T16:59:05.469Z,101568.50
2022-09-22T17:01:36.562Z,101561.66
2022-09-22T17:04:05.537Z,101568.31
2022-09-22T17:06:34.100Z,101567.13
2022-09-22T17:09:01.197Z,101564.59
2022-09-22T17:11:34.334Z,101571.31
2022-09-22T17:14:11.294Z,101569.31
2022-09-22T17:17:06.323Z,101569.47
2022-09-22T17:19:34.603Z,101568.09
2022-09-22T17:22:01.777Z,101569.75
2022-09-22T17:24:29.027Z,101569.97
2022-09-22T17:26:58.079Z,101569.88
2022-09-22T17:29:31.385Z,101565.19
2022-09-22T17:32:05.834Z,101564.72
2022-09-22T17:34:34.253Z,101561.19
2022-09-22T17:37:01.995Z,101560.00
2022-09-22T17:39:29.447Z,101569.88
2022-09-22T17:41:56.675Z,101561.13
2022-09-22T17:44:26.617Z,101568.84
2022-09-22T17:47:12.246Z,101563.00
2022-09-22T17:49:58.602Z,101561.94
2022-09-22T17:52:29.422Z,101559.03
2022-09-22T17:55:07.043Z,101562.06
2022-09-22T17:57:36.340Z,101560.50
2022-09-22T18:00:06.323Z,101556.94
2022-09-22T18:02:37.358Z,101558.72
2022-09-22T18:05:12.454Z,101556.75
2022-09-22T18:07:40.348Z,101551.00
2022-09-22T18:10:09.939Z,101553.91
2022-09-22T18:12:37.013Z,101564.88
2022-09-22T18:15:05.275Z,101560.72
2022-09-22T18:17:41.634Z,101560.72
2022-09-22T18:20:14.541Z,101565.16
2022-09-22T18:22:42.623Z,101565.84
2022-09-22T18:25:10.319Z,101564.03
2022-09-22T18:27:38.171Z,101559.81
2022-09-22T18:30:06.167Z,101562.06
2022-09-22T18:32:34.800Z,101557.31
2022-09-22T18:35:02.395Z,101555.50
2022-09-22T18:37:29.635Z,101562.28
2022-09-22T18:39:57.031Z,101552.97
2022-09-22T18:42:24.554Z,101554.72
2022-09-22T18:44:52.141Z,101559.50
2022-09-22T18:47:21.064Z,101560.91
2022-09-22T18:49:51.489Z,101556.16
2022-09-22T18:52:22.889Z,101550.34
2022-09-22T18:54:53.112Z,101555.97
2022-09-22T18:57:28.424Z,101562.81
2022-09-22T18:59:59.840Z,101560.06
2022-09-22T19:02:27.130Z,101554.38
2022-09-22T19:04:54.341Z,101562.31
2022-09-22T19:07:44.107Z,101555.75
2022-09-22T19:10:13.501Z,101556.97
2022-09-22T19:12:40.804Z,101562.09
2022-09-22T19:15:13.826Z,101564.03
2022-09-22T19:17:44.062Z,101569.72
2022-09-22T19:20:17.154Z,101565.78
2022-09-22T19:22:45.034Z,101565.88
2022-09-22T19:25:12.316Z,101569.22
2022-09-22T19:27:40.069Z,101566.97
2022-09-22T19:30:09.379Z,101567.31
2022-09-22T19:32:37.614Z,101569.13
2022-09-22T19:35:06.430Z,101571.13
2022-09-22T19:37:33.661Z,101572.72
2022-09-22T19:40:00.824Z,101566.28
2022-09-22T19:42:28.814Z,101567.53
2022-09-22T19:44:56.688Z,101564.59
2022-09-22T19:47:23.948Z,101562.97
2022-09-22T19:49:55.123Z,101564.69
2022-09-22T19:52:22.446Z,101557.63
2022-09-22T19:54:51.776Z,101552.72
2022-09-22T19:57:18.987Z,101555.88
2022-09-22T19:59:46.285Z,101558.84
2022-09-22T20:02:14.535Z,101548.16
2022-09-22T20:04:41.822Z,101549.53
2022-09-22T20:07:10.714Z,101561.88
2022-09-22T20:09:38.059Z,101563.53
2022-09-22T20:12:05.726Z,101562.66
2022-09-22T20:14:33.245Z,101553.19
2022-09-22T20:17:08.490Z,101554.28
2022-09-22T20:19:40.777Z,101555.22
2022-09-22T20:22:26.349Z,101551.34
2022-09-22T20:24:59.166Z,101551.41
2022-09-22T20:27:29.084Z,101554.88
2022-09-22T20:29:57.832Z,101542.00
2022-09-22T20:32:26.193Z,101549.94
2022-09-22T20:34:54.233Z,101547.66
2022-09-22T20:37:22.548Z,101550.59
2022-09-22T20:39:49.703Z,101552.41
2022-09-22T20:42:18.125Z,101549.97
2022-09-22T20:44:46.851Z,101546.75
2022-09-22T20:47:16.518Z,101546.91
2022-09-22T20:49:46.952Z,101542.63
2022-09-22T20:52:19.761Z,101544.94
2022-09-22T20:54:47.187Z,101546.88
2022-09-22T20:57:14.591Z,101545.31
2022-09-22T20:59:45.122Z,101551.28
2022-09-22T21:02:13.969Z,101545.78
2022-09-22T21:04:41.532Z,101545.81
2022-09-22T21:07:09.316Z,101546.84
2022-09-22T21:09:55.232Z,101546.88
2022-09-22T21:12:28.578Z,101542.34
2022-09-22T21:14:57.962Z,101540.41
2022-09-22T21:17:26.172Z,101541.13
2022-09-22T21:19:56.341Z,101541.84
2022-09-22T21:22:24.164Z,101540.13
2022-09-22T21:24:52.741Z,101537.47
2022-09-22T21:27:20.459Z,101545.34
2022-09-22T21:29:47.700Z,101534.78
2022-09-22T21:32:14.903Z,101537.44
2022-09-22T21:34:42.971Z,101538.19
2022-09-22T21:37:10.128Z,101539.41
2022-09-22T21:39:37.522Z,101541.63
2022-09-22T21:42:04.807Z,101543.91
2022-09-22T21:44:31.988Z,101540.84
2022-09-22T21:46:59.345Z,101539.28
2022-09-22T21:49:26.669Z,101533.84
2022-09-22T21:51:53.826Z,101550.31
2022-09-22T21:54:20.974Z,101538.53
2022-09-22T21:56:50.443Z,101541.69
2022-09-22T21:59:17.580Z,101540.81
2022-09-22T22:01:45.163Z,101532.72
2022-09-22T22:04:15.157Z,101535.41
2022-09-22T22:06:44.330Z,101539.91
2022-09-22T22:09:15.208Z,101538.31
2022-09-22T22:11:49.537Z,101535.44
2022-09-22T22:14:19.214Z,101534.81
2022-09-22T22:16:48.485Z,101538.34
2022-09-22T22:19:18.058Z,101540.84
2022-09-22T22:21:46.064Z,101528.81
2022-09-22T22:24:17.917Z,101525.25
2022-09-22T22:27:01.172Z,101525.44
2022-09-22T22:29:31.627Z,101538.09
2022-09-22T22:31:59.318Z,101528.69
2022-09-22T22:34:26.415Z,101523.78
2022-09-22T22:36:54.516Z,101527.38
2022-09-22T22:39:21.959Z,101530.22
2022-09-22T22:41:49.101Z,101528.78
2022-09-22T22:44:18.933Z,101534.03
2022-09-22T22:46:46.407Z,101528.72
2022-09-22T22:49:13.813Z,101525.72
2022-09-22T22:51:43.157Z,101530.22
2022-09-22T22:54:12.055Z,101527.81
2022-09-22T22:56:43.253Z,101528.56
2022-09-22T22:59:12.163Z,101524.41
2022-09-22T23:01:40.562Z,101529.13
2022-09-22T23:04:10.041Z,101520.31
2022-09-22T23:06:39.531Z,101524.72
2022-09-22T23:09:08.512Z,101525.56
2022-09-22T23:11:37.770Z,101522.28
2022-09-22T23:14:07.240Z,101526.81
2022-09-22T23:16:37.639Z,101528.00
2022-09-22T23:19:07.788Z,101528.97
2022-09-22T23:21:36.131Z,101528.22
2022-09-22T23:24:04.434Z,101522.78
2022-09-22T23:26:32.000Z,101520.16
2022-09-22T23:28:59.565Z,101516.06
2022-09-22T23:31:27.300Z,101517.00
2022-09-22T23:33:54.570Z,101504.91
2022-09-22T23:36:24.358Z,101515.41
2022-09-22T23:38:55.510Z,101506.97
2022-09-22T23:41:22.875Z,101496.53
2022-09-22T23:43:50.484Z,101497.41
2022-09-22T23:46:17.709Z,101500.13
2022-09-22T23:48:47.418Z,101488.75
2022-09-22T23:51:15.015Z,101488.88
2022-09-22T23:53:42.560Z,101488.94
2022-09-22T23:56:09.678Z,101487.16
2022-09-22T23:58:38.046Z,101488.88
